Lee's Summit, MO

8:01 AM CST on February 28, 2017 (GMT -0600)
Lee's Summit Municipal | | Change Station
Active Advisory: Fire Weather Warning

Elev 1004 ft 38.96 °N, 94.37 °W | Updated 8 minutes ago

Mostly Cloudy
Mostly Cloudy
63 °F
Feels Like 63 °F
N
16
Wind Variable Wind from SSW

Today
High -- | Low -- °F
--% Chance of Precip.
Yesterday
High -- | Low -- °F
Precip. -- in
Pressure 29.71 in
Visibility 9.0 miles
Clouds Few 1900 ft
Mostly Cloudy 3700 ft
Dew Point 59 °F
Humidity 87%
Rainfall 0.00 in
Snow Depth Not available.
6:50 AM 6:09 PM
Waxing Crescent, 5% visible
METAR KLXT 281353Z AUTO 21014KT 9SM FEW019 BKN037 17/15 A2972 RMK AO2 SLP059 T01720150
Pressure 29.71 in
Visibility 9.0 miles
Clouds Few 1900 ft
Mostly Cloudy 3700 ft
Dew Point 59 °F
Humidity 87%
Rainfall 0.00 in
Snow Depth Not available.
6:50 AM 6:09 PM
Waxing Crescent, 5% visible
METAR KLXT 281353Z AUTO 21014KT 9SM FEW019 BKN037 17/15 A2972 RMK AO2 SLP059 T01720150

Get Your Daily Forecast Email!

Thanks for signing up!

Be on the lookout for a verification email in your inbox.

You'll start receiving the daily forecast at 8 AM.

×

10-Day Weather Forecast

Almanac

Astronomy

Feb. 28, 2017 Rise Set
Actual Time
Civil Twilight
Nautical Twilight
Astronomical Twilight
Moon
Length of Visible Light
Length of Day
Tomorrow will be .
, % of the Moon is Illuminated

Today's Extremes

State Highs State Lows

Community

WunderPhotos

Upload Photos

1,962,540 photos uploaded!

WunderBlog® & News

Nearby

Air Quality

  Air Quality AQ Index Pollutant
Not available.

Snow Depth

Station Depth Elevation

Earthquake Activity

City Distance Mag. Time & Date
Minimum magnitude displayed is 2.5.

Coastal Water Temperatures

Place Temperature

Stations

Nearby Weather Stations

Station Location Temp. Windchill Dew Point Humidity Wind Precip. Elev Updated Type
                   

Watches & Warnings

Fire Weather Warning
Issued: 3:36 AM CST Feb. 28, 2017 – National Weather Service

... Red flag warning in effect from noon today to 6 PM CST this
evening for gusty winds... low relative humidity... and dry
fuels... for fire weather zones 057, 060, 103, 104, 105, 028, 029,
037, 043, and 053.

The National Weather Service in Kansas City/Pleasant Hill has
issued a red flag warning, which is in effect from noon today to
6 PM CST this evening.

* Affected area... fire weather zones 057, 060, 103, 104, and
105.Fire weather zones 028, 029, 037, 043, and 053.

* Wind... southwest winds of 15 to 25 mph sustained with gusts of
30 to 35 mph.

* Humidity... as low as 15 to 25 percent

* impacts... any fires that develop will likely spread rapidly.
Outdoor burning is strongly discouraged.

Precautionary/preparedness actions...

A red flag warning means that critical fire weather conditions
are either occurring now, or will shortly. A combination of
strong winds, low relative humidity, and warm temperatures can
contribute to extreme fire behavior.